sensor_id;sensor_type;location;lat;lon;timestamp;pressure;altitude;pressure_sealevel;temperature;humidity
63399;BME280;49533;-34.520;150.798;2023-04-20T00:01:47;101400.66;;;19.86;56.29
63399;BME280;49533;-34.520;150.798;2023-04-20T00:04:14;101426.13;;;20.08;56.10
63399;BME280;49533;-34.520;150.798;2023-04-20T00:06:42;101414.41;;;19.98;56.21
63399;BME280;49533;-34.520;150.798;2023-04-20T00:09:12;101424.50;;;20.07;56.15
63399;BME280;49533;-34.520;150.798;2023-04-20T00:11:40;101427.25;;;20.07;56.16
63399;BME280;49533;-34.520;150.798;2023-04-20T00:14:07;101360.72;;;19.55;56.26
63399;BME280;49533;-34.520;150.798;2023-04-20T00:16:34;101423.63;;;20.03;56.30
63399;BME280;49533;-34.520;150.798;2023-04-20T00:19:02;101422.00;;;20.02;56.30
63399;BME280;49533;-34.520;150.798;2023-04-20T00:21:29;101304.88;;;19.18;56.23
63399;BME280;49533;-34.520;150.798;2023-04-20T00:23:56;101422.84;;;19.90;56.30
63399;BME280;49533;-34.520;150.798;2023-04-20T00:26:23;101431.53;;;20.04;56.41
63399;BME280;49533;-34.520;150.798;2023-04-20T00:28:51;101439.00;;;20.04;56.49
63399;BME280;49533;-34.520;150.798;2023-04-20T00:31:18;101421.59;;;19.87;56.57
63399;BME280;49533;-34.520;150.798;2023-04-20T00:33:47;101406.22;;;19.74;56.52
63399;BME280;49533;-34.520;150.798;2023-04-20T00:36:14;101417.34;;;19.77;56.74
63399;BME280;49533;-34.520;150.798;2023-04-20T00:38:42;101376.94;;;19.57;56.49
63399;BME280;49533;-34.520;150.798;2023-04-20T00:41:10;101422.06;;;19.77;56.65
63399;BME280;49533;-34.520;150.798;2023-04-20T00:43:37;101424.47;;;19.79;57.17
63399;BME280;49533;-34.520;150.798;2023-04-20T00:46:04;101372.69;;;19.47;57.09
63399;BME280;49533;-34.520;150.798;2023-04-20T00:48:31;101416.56;;;19.77;57.20
63399;BME280;49533;-34.520;150.798;2023-04-20T00:50:58;101377.25;;;19.55;57.13
63399;BME280;49533;-34.520;150.798;2023-04-20T00:53:26;101427.69;;;19.81;57.06
63399;BME280;49533;-34.520;150.798;2023-04-20T00:55:53;101408.84;;;19.70;56.98
63399;BME280;49533;-34.520;150.798;2023-04-20T00:58:20;101406.91;;;19.71;56.88
63399;BME280;49533;-34.520;150.798;2023-04-20T01:00:48;101420.56;;;19.80;56.74
63399;BME280;49533;-34.520;150.798;2023-04-20T01:03:15;101397.81;;;19.58;56.60
63399;BME280;49533;-34.520;150.798;2023-04-20T01:05:43;101125.06;;;17.91;56.53
63399;BME280;49533;-34.520;150.798;2023-04-20T01:08:10;101428.94;;;19.83;56.68
63399;BME280;49533;-34.520;150.798;2023-04-20T01:10:37;101424.59;;;19.82;56.60
63399;BME280;49533;-34.520;150.798;2023-04-20T01:13:04;101422.28;;;19.84;56.62
63399;BME280;49533;-34.520;150.798;2023-04-20T01:15:32;101389.91;;;19.57;56.55
63399;BME280;49533;-34.520;150.798;2023-04-20T01:18:00;101392.75;;;19.60;56.38
63399;BME280;49533;-34.520;150.798;2023-04-20T01:20:28;101422.06;;;19.77;56.57
63399;BME280;49533;-34.520;150.798;2023-04-20T01:22:55;101421.59;;;19.87;56.23
63399;BME280;49533;-34.520;150.798;2023-04-20T01:25:22;101428.69;;;19.88;56.36
63399;BME280;49533;-34.520;150.798;2023-04-20T01:27:50;101396.22;;;19.69;56.35
63399;BME280;49533;-34.520;150.798;2023-04-20T01:30:17;101425.94;;;19.88;56.38
63399;BME280;49533;-34.520;150.798;2023-04-20T01:32:44;101419.28;;;19.89;56.31
63399;BME280;49533;-34.520;150.798;2023-04-20T01:35:11;101418.28;;;19.82;56.32
63399;BME280;49533;-34.520;150.798;2023-04-20T01:37:40;101420.78;;;19.87;56.47
63399;BME280;49533;-34.520;150.798;2023-04-20T01:40:09;101409.63;;;19.83;55.97
63399;BME280;49533;-34.520;150.798;2023-04-20T01:42:38;101405.75;;;19.84;56.18
63399;BME280;49533;-34.520;150.798;2023-04-20T01:45:06;101420.41;;;19.88;56.25
63399;BME280;49533;-34.520;150.798;2023-04-20T01:47:34;101410.56;;;19.87;56.15
63399;BME280;49533;-34.520;150.798;2023-04-20T01:50:01;101393.78;;;19.80;56.40
63399;BME280;49533;-34.520;150.798;2023-04-20T01:52:28;101406.63;;;19.88;56.33
63399;BME280;49533;-34.520;150.798;2023-04-20T01:54:55;101378.06;;;19.68;55.83
63399;BME280;49533;-34.520;150.798;2023-04-20T01:57:22;101386.94;;;19.74;56.28
63399;BME280;49533;-34.520;150.798;2023-04-20T01:59:49;101399.16;;;19.89;56.43
63399;BME280;49533;-34.520;150.798;2023-04-20T02:02:17;101386.19;;;19.89;56.45
63399;BME280;49533;-34.520;150.798;2023-04-20T02:04:44;101374.94;;;19.82;56.32
63399;BME280;49533;-34.520;150.798;2023-04-20T02:07:11;101394.09;;;19.91;56.44
63399;BME280;49533;-34.520;150.798;2023-04-20T02:09:38;101358.09;;;19.71;56.15
63399;BME280;49533;-34.520;150.798;2023-04-20T02:12:06;101366.69;;;19.82;56.37
63399;BME280;49533;-34.520;150.798;2023-04-20T02:14:33;101371.81;;;19.84;56.11
63399;BME280;49533;-34.520;150.798;2023-04-20T02:17:00;101375.97;;;19.90;56.16
63399;BME280;49533;-34.520;150.798;2023-04-20T02:19:27;101341.44;;;19.68;56.49
63399;BME280;49533;-34.520;150.798;2023-04-20T02:21:55;101382.28;;;19.90;56.16
63399;BME280;49533;-34.520;150.798;2023-04-20T02:24:22;101376.28;;;19.88;56.08
63399;BME280;49533;-34.520;150.798;2023-04-20T02:26:49;101312.03;;;19.60;56.10
63399;BME280;49533;-34.520;150.798;2023-04-20T02:29:16;101306.50;;;19.60;56.13
63399;BME280;49533;-34.520;150.798;2023-04-20T02:31:43;101346.66;;;19.85;56.14
63399;BME280;49533;-34.520;150.798;2023-04-20T02:34:10;101356.75;;;19.93;56.05
63399;BME280;49533;-34.520;150.798;2023-04-20T02:36:38;101350.88;;;19.95;56.10
63399;BME280;49533;-34.520;150.798;2023-04-20T02:39:05;101350.97;;;19.98;56.10
63399;BME280;49533;-34.520;150.798;2023-04-20T02:41:33;101345.47;;;19.98;56.07
63399;BME280;49533;-34.520;150.798;2023-04-20T02:44:01;101331.78;;;19.74;55.94
63399;BME280;49533;-34.520;150.798;2023-04-20T02:46:28;101296.84;;;19.66;55.93
63399;BME280;49533;-34.520;150.798;2023-04-20T02:48:55;101345.84;;;19.97;55.83
63399;BME280;49533;-34.520;150.798;2023-04-20T02:51:22;101244.13;;;19.27;55.86
63399;BME280;49533;-34.520;150.798;2023-04-20T02:53:49;101345.47;;;19.98;55.81
63399;BME280;49533;-34.520;150.798;2023-04-20T02:56:17;101334.69;;;19.93;56.01
63399;BME280;49533;-34.520;150.798;2023-04-20T02:58:44;101341.56;;;20.00;56.00
63399;BME280;49533;-34.520;150.798;2023-04-20T03:01:13;101333.28;;;20.00;55.86
63399;BME280;49533;-34.520;150.798;2023-04-20T03:03:41;101339.59;;;20.00;55.94
63399;BME280;49533;-34.520;150.798;2023-04-20T03:06:08;101257.84;;;19.51;55.59
63399;BME280;49533;-34.520;150.798;2023-04-20T03:08:36;101311.28;;;19.87;55.72
63399;BME280;49533;-34.520;150.798;2023-04-20T03:11:03;101323.19;;;19.91;55.73
63399;BME280;49533;-34.520;150.798;2023-04-20T03:13:30;101340.16;;;20.06;55.74
63399;BME280;49533;-34.520;150.798;2023-04-20T03:15:57;101337.38;;;20.06;55.61
63399;BME280;49533;-34.520;150.798;2023-04-20T03:18:25;101294.19;;;19.82;55.58
63399;BME280;49533;-34.520;150.798;2023-04-20T03:20:52;101332.34;;;20.08;55.83
63399;BME280;49533;-34.520;150.798;2023-04-20T03:23:19;101335.09;;;20.08;55.82
63399;BME280;49533;-34.520;150.798;2023-04-20T03:25:46;101327.28;;;20.10;55.78
63399;BME280;49533;-34.520;150.798;2023-04-20T03:28:15;101334.72;;;20.09;55.67
63399;BME280;49533;-34.520;150.798;2023-04-20T03:30:42;101310.50;;;20.03;55.67
63399;BME280;49533;-34.520;150.798;2023-04-20T03:33:09;101253.22;;;19.68;55.88
63399;BME280;49533;-34.520;150.798;2023-04-20T03:35:37;101307.06;;;20.06;55.64
63399;BME280;49533;-34.520;150.798;2023-04-20T03:38:04;101325.06;;;20.15;55.73
63399;BME280;49533;-34.520;150.798;2023-04-20T03:40:32;101236.56;;;19.64;55.80
63399;BME280;49533;-34.520;150.798;2023-04-20T03:42:59;101318.75;;;20.15;55.83
63399;BME280;49533;-34.520;150.798;2023-04-20T03:45:27;101297.53;;;20.03;55.69
63399;BME280;49533;-34.520;150.798;2023-04-20T03:47:54;101314.00;;;20.15;56.02
63399;BME280;49533;-34.520;150.798;2023-04-20T03:50:21;101289.16;;;20.00;55.78
63399;BME280;49533;-34.520;150.798;2023-04-20T03:52:48;101309.03;;;20.21;55.74
63399;BME280;49533;-34.520;150.798;2023-04-20T03:55:16;101307.06;;;20.06;55.58
63399;BME280;49533;-34.520;150.798;2023-04-20T03:57:43;101316.16;;;20.22;55.77
63399;BME280;49533;-34.520;150.798;2023-04-20T04:00:11;101314.91;;;20.19;55.75
63399;BME280;49533;-34.520;150.798;2023-04-20T04:02:38;101308.13;;;20.17;55.66
63399;BME280;49533;-34.520;150.798;2023-04-20T04:05:06;101266.44;;;19.90;55.84
63399;BME280;49533;-34.520;150.798;2023-04-20T04:07:33;101315.34;;;20.22;55.69
63399;BME280;49533;-34.520;150.798;2023-04-20T04:10:00;101228.84;;;19.70;55.67
63399;BME280;49533;-34.520;150.798;2023-04-20T04:12:30;101327.28;;;20.26;55.82
63399;BME280;49533;-34.520;150.798;2023-04-20T04:14:57;101320.06;;;20.21;55.85
63399;BME280;49533;-34.520;150.798;2023-04-20T04:17:25;101320.53;;;20.23;55.54
63399;BME280;49533;-34.520;150.798;2023-04-20T04:19:52;101318.13;;;20.22;55.53
63399;BME280;49533;-34.520;150.798;2023-04-20T04:22:19;101266.44;;;19.90;55.58
63399;BME280;49533;-34.520;150.798;2023-04-20T04:24:46;101309.63;;;20.14;55.76
63399;BME280;49533;-34.520;150.798;2023-04-20T04:27:14;101311.59;;;20.14;55.31
63399;BME280;49533;-34.520;150.798;2023-04-20T04:29:41;101317.84;;;20.27;55.34
63399;BME280;49533;-34.520;150.798;2023-04-20T04:32:09;101318.66;;;20.27;55.24
63399;BME280;49533;-34.520;150.798;2023-04-20T04:34:38;101311.78;;;20.21;55.36
63399;BME280;49533;-34.520;150.798;2023-04-20T04:37:05;101311.47;;;20.23;55.57
63399;BME280;49533;-34.520;150.798;2023-04-20T04:39:33;101316.59;;;20.24;55.46
63399;BME280;49533;-34.520;150.798;2023-04-20T04:42:04;101320.28;;;20.28;55.12
63399;BME280;49533;-34.520;150.798;2023-04-20T04:44:32;101284.44;;;20.00;55.41
63399;BME280;49533;-34.520;150.798;2023-04-20T04:47:02;101332.81;;;20.26;55.27
63399;BME280;49533;-34.520;150.798;2023-04-20T04:49:31;101328.88;;;20.27;55.45
63399;BME280;49533;-34.520;150.798;2023-04-20T04:52:01;101206.28;;;19.52;55.13
63399;BME280;49533;-34.520;150.798;2023-04-20T04:54:28;101322.31;;;20.31;55.31
63399;BME280;49533;-34.520;150.798;2023-04-20T04:56:55;101343.22;;;20.32;54.91
63399;BME280;49533;-34.520;150.798;2023-04-20T04:59:23;101328.28;;;20.33;55.00
63399;BME280;49533;-34.520;150.798;2023-04-20T05:01:50;101318.84;;;20.34;55.16
63399;BME280;49533;-34.520;150.798;2023-04-20T05:04:18;101327.56;;;20.36;54.99
63399;BME280;49533;-34.520;150.798;2023-04-20T05:06:45;101331.50;;;20.35;54.93
63399;BME280;49533;-34.520;150.798;2023-04-20T05:09:12;101321.59;;;20.34;55.17
63399;BME280;49533;-34.520;150.798;2023-04-20T05:11:39;101334.25;;;20.35;55.29
63399;BME280;49533;-34.520;150.798;2023-04-20T05:14:07;101189.28;;;19.50;55.14
63399;BME280;49533;-34.520;150.798;2023-04-20T05:16:34;101333.44;;;20.35;54.92
63399;BME280;49533;-34.520;150.798;2023-04-20T05:19:01;101281.69;;;20.00;55.15
63399;BME280;49533;-34.520;150.798;2023-04-20T05:21:29;101316.34;;;20.29;55.04
63399;BME280;49533;-34.520;150.798;2023-04-20T05:23:56;101327.56;;;20.36;54.88
63399;BME280;49533;-34.520;150.798;2023-04-20T05:26:23;101334.25;;;20.35;55.09
63399;BME280;49533;-34.520;150.798;2023-04-20T05:28:51;101301.22;;;20.23;54.75
63399;BME280;49533;-34.520;150.798;2023-04-20T05:31:18;101334.69;;;20.37;55.00
63399;BME280;49533;-34.520;150.798;2023-04-20T05:33:45;101336.66;;;20.37;54.85
63399;BME280;49533;-34.520;150.798;2023-04-20T05:36:12;101334.25;;;20.35;54.54
63399;BME280;49533;-34.520;150.798;2023-04-20T05:38:39;101337.81;;;20.36;54.60
63399;BME280;49533;-34.520;150.798;2023-04-20T05:41:07;101335.50;;;20.38;54.90
63399;BME280;49533;-34.520;150.798;2023-04-20T05:43:34;101212.59;;;19.52;53.85
63399;BME280;49533;-34.520;150.798;2023-04-20T05:46:02;101342.53;;;20.35;53.65
63399;BME280;49533;-34.520;150.798;2023-04-20T05:48:29;101256.38;;;19.82;53.05
63399;BME280;49533;-34.520;150.798;2023-04-20T05:50:57;101300.81;;;20.09;53.21
63399;BME280;49533;-34.520;150.798;2023-04-20T05:53:24;101279.44;;;19.90;52.83
63399;BME280;49533;-34.520;150.798;2023-04-20T05:55:51;101336.81;;;20.28;52.28
63399;BME280;49533;-34.520;150.798;2023-04-20T05:58:18;101303.13;;;20.07;52.43
63399;BME280;49533;-34.520;150.798;2023-04-20T06:00:46;101332.63;;;20.18;51.78
63399;BME280;49533;-34.520;150.798;2023-04-20T06:03:13;101344.91;;;20.21;52.08
63399;BME280;49533;-34.520;150.798;2023-04-20T06:05:40;101304.34;;;19.93;52.29
63399;BME280;49533;-34.520;150.798;2023-04-20T06:08:07;101343.06;;;20.25;52.00
63399;BME280;49533;-34.520;150.798;2023-04-20T06:10:34;101348.47;;;20.22;52.29
63399;BME280;49533;-34.520;150.798;2023-04-20T06:13:01;101336.81;;;20.12;51.95
63399;BME280;49533;-34.520;150.798;2023-04-20T06:15:28;101352.72;;;20.19;52.25
63399;BME280;49533;-34.520;150.798;2023-04-20T06:17:56;101368.16;;;20.20;51.97
63399;BME280;49533;-34.520;150.798;2023-04-20T06:20:23;101357.00;;;20.16;52.09
63399;BME280;49533;-34.520;150.798;2023-04-20T06:22:50;101334.34;;;19.95;52.24
63399;BME280;49533;-34.520;150.798;2023-04-20T06:25:17;101330.41;;;19.96;52.54
63399;BME280;49533;-34.520;150.798;2023-04-20T06:27:45;101322.19;;;19.84;52.78
63399;BME280;49533;-34.520;150.798;2023-04-20T06:30:13;101337.81;;;19.92;52.63
63399;BME280;49533;-34.520;150.798;2023-04-20T06:32:40;101373.81;;;20.11;52.21
63399;BME280;49533;-34.520;150.798;2023-04-20T06:35:07;101363.25;;;20.01;51.91
63399;BME280;49533;-34.520;150.798;2023-04-20T06:37:35;101354.91;;;19.97;52.07
63399;BME280;49533;-34.520;150.798;2023-04-20T06:40:03;101378.31;;;20.04;51.81
63399;BME280;49533;-34.520;150.798;2023-04-20T06:42:33;101356.28;;;19.91;51.98
63399;BME280;49533;-34.520;150.798;2023-04-20T06:45:01;101370.75;;;20.01;52.36
63399;BME280;49533;-34.520;150.798;2023-04-20T06:47:29;101384.06;;;19.98;52.62
63399;BME280;49533;-34.520;150.798;2023-04-20T06:49:59;101365.50;;;19.83;52.32
63399;BME280;49533;-34.520;150.798;2023-04-20T06:52:26;101271.47;;;19.20;52.42
63399;BME280;49533;-34.520;150.798;2023-04-20T06:54:54;101391.91;;;19.96;52.62
63399;BME280;49533;-34.520;150.798;2023-04-20T06:57:21;101388.72;;;19.94;52.81
63399;BME280;49533;-34.520;150.798;2023-04-20T06:59:48;101332.03;;;19.57;52.42
63399;BME280;49533;-34.520;150.798;2023-04-20T07:02:15;101407.19;;;19.94;52.51
63399;BME280;49533;-34.520;150.798;2023-04-20T07:04:42;101384.16;;;19.74;52.75
63399;BME280;49533;-34.520;150.798;2023-04-20T07:07:09;101384.59;;;19.76;52.63
63399;BME280;49533;-34.520;150.798;2023-04-20T07:09:36;101393.00;;;19.80;52.17
63399;BME280;49533;-34.520;150.798;2023-04-20T07:12:03;101416.16;;;19.91;52.03
63399;BME280;49533;-34.520;150.798;2023-04-20T07:14:30;101352.84;;;19.42;51.95
63399;BME280;49533;-34.520;150.798;2023-04-20T07:16:58;101404.34;;;19.78;52.11
63399;BME280;49533;-34.520;150.798;2023-04-20T07:19:25;101380.38;;;19.54;52.13
63399;BME280;49533;-34.520;150.798;2023-04-20T07:21:52;101417.25;;;19.74;52.29
63399;BME280;49533;-34.520;150.798;2023-04-20T07:24:19;101425.97;;;19.76;52.65
63399;BME280;49533;-34.520;150.798;2023-04-20T07:26:46;101432.97;;;19.73;52.49
63399;BME280;49533;-34.520;150.798;2023-04-20T07:29:14;101427.09;;;19.63;52.55
63399;BME280;49533;-34.520;150.798;2023-04-20T07:31:41;101444.38;;;19.72;52.63
63399;BME280;49533;-34.520;150.798;2023-04-20T07:34:08;101425.84;;;19.48;52.72
63399;BME280;49533;-34.520;150.798;2023-04-20T07:36:36;101415.19;;;19.46;52.79
63399;BME280;49533;-34.520;150.798;2023-04-20T07:39:04;101367.91;;;19.07;53.01
63399;BME280;49533;-34.520;150.798;2023-04-20T07:41:31;101435.84;;;19.40;52.99
63399;BME280;49533;-34.520;150.798;2023-04-20T07:43:58;101458.69;;;19.65;53.02
63399;BME280;49533;-34.520;150.798;2023-04-20T07:46:25;101459.38;;;19.62;53.03
63399;BME280;49533;-34.520;150.798;2023-04-20T07:48:54;101420.81;;;19.38;53.00
63399;BME280;49533;-34.520;150.798;2023-04-20T07:51:22;101462.03;;;19.59;52.96
63399;BME280;49533;-34.520;150.798;2023-04-20T07:53:49;101450.31;;;19.49;52.95
63399;BME280;49533;-34.520;150.798;2023-04-20T07:56:16;101417.25;;;19.25;52.92
63399;BME280;49533;-34.520;150.798;2023-04-20T07:58:44;101447.22;;;19.39;52.83
63399;BME280;49533;-34.520;150.798;2023-04-20T08:01:11;101462.03;;;19.46;52.80
63399;BME280;49533;-34.520;150.798;2023-04-20T08:03:38;101472.59;;;19.57;52.65
63399;BME280;49533;-34.520;150.798;2023-04-20T08:06:06;101474.91;;;19.54;52.57
63399;BME280;49533;-34.520;150.798;2023-04-20T08:08:34;101480.41;;;19.54;52.63
63399;BME280;49533;-34.520;150.798;2023-04-20T08:11:01;101471.44;;;19.45;52.71
63399;BME280;49533;-34.520;150.798;2023-04-20T08:13:28;101479.28;;;19.43;52.75
63399;BME280;49533;-34.520;150.798;2023-04-20T08:15:57;101496.72;;;19.47;52.95
63399;BME280;49533;-34.520;150.798;2023-04-20T08:18:24;101494.66;;;19.44;52.95
63399;BME280;49533;-34.520;150.798;2023-04-20T08:20:51;101459.84;;;19.15;53.01
63399;BME280;49533;-34.520;150.798;2023-04-20T08:23:19;101429.63;;;18.94;52.89
63399;BME280;49533;-34.520;150.798;2023-04-20T08:25:46;101470.50;;;19.17;52.96
63399;BME280;49533;-34.520;150.798;2023-04-20T08:28:13;101508.97;;;19.38;52.93
63399;BME280;49533;-34.520;150.798;2023-04-20T08:30:40;101467.50;;;19.09;52.82
63399;BME280;49533;-34.520;150.798;2023-04-20T08:33:07;101508.88;;;19.34;52.90
63399;BME280;49533;-34.520;150.798;2023-04-20T08:35:34;101512.78;;;19.33;52.97
63399;BME280;49533;-34.520;150.798;2023-04-20T08:38:01;101510.47;;;19.23;53.21
63399;BME280;49533;-34.520;150.798;2023-04-20T08:40:30;101480.13;;;18.98;52.93
63399;BME280;49533;-34.520;150.798;2023-04-20T08:42:58;101482.75;;;18.95;52.93
63399;BME280;49533;-34.520;150.798;2023-04-20T08:45:25;101538.13;;;19.26;53.13
63399;BME280;49533;-34.520;150.798;2023-04-20T08:47:53;101493.66;;;19.03;52.88
63399;BME280;49533;-34.520;150.798;2023-04-20T08:50:22;101512.03;;;19.11;53.14
63399;BME280;49533;-34.520;150.798;2023-04-20T08:52:50;101490.56;;;18.93;53.17
63399;BME280;49533;-34.520;150.798;2023-04-20T08:55:18;101538.72;;;19.32;53.18
63399;BME280;49533;-34.520;150.798;2023-04-20T08:57:47;101534.81;;;19.21;53.26
63399;BME280;49533;-34.520;150.798;2023-04-20T09:00:15;101527.66;;;19.07;53.17
63399;BME280;49533;-34.520;150.798;2023-04-20T09:02:53;101555.81;;;19.25;53.25
63399;BME280;49533;-34.520;150.798;2023-04-20T09:05:27;101548.56;;;19.21;53.43
63399;BME280;49533;-34.520;150.798;2023-04-20T09:07:57;101535.09;;;19.07;53.38
63399;BME280;49533;-34.520;150.798;2023-04-20T09:10:26;101502.78;;;18.83;53.24
63399;BME280;49533;-34.520;150.798;2023-04-20T09:12:53;101563.72;;;19.27;53.01
63399;BME280;49533;-34.520;150.798;2023-04-20T09:15:29;101569.13;;;19.23;52.94
63399;BME280;49533;-34.520;150.798;2023-04-20T09:17:57;101574.06;;;19.18;53.10
63399;BME280;49533;-34.520;150.798;2023-04-20T09:20:29;101578.88;;;19.21;53.19
63399;BME280;49533;-34.520;150.798;2023-04-20T09:23:09;101536.09;;;18.90;52.98
63399;BME280;49533;-34.520;150.798;2023-04-20T09:25:36;101542.44;;;19.03;53.04
63399;BME280;49533;-34.520;150.798;2023-04-20T09:28:03;101579.34;;;19.23;52.81
63399;BME280;49533;-34.520;150.798;2023-04-20T09:30:42;101571.16;;;19.14;52.74
63399;BME280;49533;-34.520;150.798;2023-04-20T09:33:11;101585.06;;;19.18;52.85
63399;BME280;49533;-34.520;150.798;2023-04-20T09:35:40;101573.66;;;19.07;52.87
63399;BME280;49533;-34.520;150.798;2023-04-20T09:38:09;101572.38;;;19.04;53.12
63399;BME280;49533;-34.520;150.798;2023-04-20T09:40:37;101580.91;;;19.11;53.06
63399;BME280;49533;-34.520;150.798;2023-04-20T09:43:16;101582.19;;;19.14;53.08
63399;BME280;49533;-34.520;150.798;2023-04-20T09:45:44;101590.31;;;19.10;53.43
63399;BME280;49533;-34.520;150.798;2023-04-20T09:48:11;101591.25;;;19.15;53.12
63399;BME280;49533;-34.520;150.798;2023-04-20T09:50:45;101573.63;;;18.95;53.04
63399;BME280;49533;-34.520;150.798;2023-04-20T09:53:15;101587.19;;;19.00;52.97
63399;BME280;49533;-34.520;150.798;2023-04-20T09:55:46;101501.56;;;18.38;53.01
63399;BME280;49533;-34.520;150.798;2023-04-20T09:58:15;101537.63;;;18.58;52.94
63399;BME280;49533;-34.520;150.798;2023-04-20T10:00:43;101598.28;;;18.91;53.14
63399;BME280;49533;-34.520;150.798;2023-04-20T10:03:10;101592.09;;;18.94;53.11
63399;BME280;49533;-34.520;150.798;2023-04-20T10:05:38;101610.03;;;19.00;52.88
63399;BME280;49533;-34.520;150.798;2023-04-20T10:08:05;101551.78;;;18.68;52.79
63399;BME280;49533;-34.520;150.798;2023-04-20T10:10:52;101573.69;;;18.86;52.80
63399;BME280;49533;-34.520;150.798;2023-04-20T10:13:19;101610.94;;;19.04;52.93
63399;BME280;49533;-34.520;150.798;2023-04-20T10:15:48;101598.34;;;19.03;52.81
63399;BME280;49533;-34.520;150.798;2023-04-20T10:18:20;101612.00;;;19.12;52.85
63399;BME280;49533;-34.520;150.798;2023-04-20T10:20:51;101581.22;;;18.98;52.94
63399;BME280;49533;-34.520;150.798;2023-04-20T10:23:30;101603.88;;;19.16;52.90
63399;BME280;49533;-34.520;150.798;2023-04-20T10:25:58;101560.88;;;18.90;52.87
63399;BME280;49533;-34.520;150.798;2023-04-20T10:28:37;101488.25;;;18.40;52.76
63399;BME280;49533;-34.520;150.798;2023-04-20T10:31:06;101611.16;;;19.20;52.79
63399;BME280;49533;-34.520;150.798;2023-04-20T10:33:34;101609.88;;;19.18;52.93
63399;BME280;49533;-34.520;150.798;2023-04-20T10:36:01;101623.44;;;19.23;52.82
63399;BME280;49533;-34.520;150.798;2023-04-20T10:38:30;101609.66;;;19.23;52.82
63399;BME280;49533;-34.520;150.798;2023-04-20T10:41:11;101544.78;;;18.80;52.79
63399;BME280;49533;-34.520;150.798;2023-04-20T10:43:39;101594.88;;;19.06;52.78
63399;BME280;49533;-34.520;150.798;2023-04-20T10:46:15;101563.16;;;18.88;53.01
63399;BME280;49533;-34.520;150.798;2023-04-20T10:48:54;101614.69;;;19.21;52.97
63399;BME280;49533;-34.520;150.798;2023-04-20T10:51:23;101606.16;;;19.14;52.81
63399;BME280;49533;-34.520;150.798;2023-04-20T10:54:01;101613.22;;;19.23;52.83
63399;BME280;49533;-34.520;150.798;2023-04-20T10:56:38;101645.81;;;19.21;52.91
63399;BME280;49533;-34.520;150.798;2023-04-20T10:59:07;101580.63;;;18.92;52.73
63399;BME280;49533;-34.520;150.798;2023-04-20T11:01:35;101629.16;;;19.18;52.92
63399;BME280;49533;-34.520;150.798;2023-04-20T11:04:03;101611.91;;;19.08;53.00
63399;BME280;49533;-34.520;150.798;2023-04-20T11:06:30;101621.53;;;19.15;52.75
63399;BME280;49533;-34.520;150.798;2023-04-20T11:08:57;101645.31;;;19.19;52.77
63399;BME280;49533;-34.520;150.798;2023-04-20T11:11:26;101628.91;;;19.10;52.71
63399;BME280;49533;-34.520;150.798;2023-04-20T11:14:09;101635.78;;;19.17;52.92
63399;BME280;49533;-34.520;150.798;2023-04-20T11:16:37;101641.09;;;19.22;52.70
63399;BME280;49533;-34.520;150.798;2023-04-20T11:19:05;101635.94;;;19.20;52.84
63399;BME280;49533;-34.520;150.798;2023-04-20T11:21:39;101632.72;;;19.18;52.82
63399;BME280;49533;-34.520;150.798;2023-04-20T11:24:27;101648.22;;;19.23;52.86
63399;BME280;49533;-34.520;150.798;2023-04-20T11:26:56;101644.78;;;19.26;52.72
63399;BME280;49533;-34.520;150.798;2023-04-20T11:29:33;101664.41;;;19.24;52.82
63399;BME280;49533;-34.520;150.798;2023-04-20T11:32:02;101654.53;;;19.23;52.73
63399;BME280;49533;-34.520;150.798;2023-04-20T11:34:30;101648.69;;;19.25;52.73
63399;BME280;49533;-34.520;150.798;2023-04-20T11:37:03;101538.19;;;18.51;52.71
63399;BME280;49533;-34.520;150.798;2023-04-20T11:39:31;101649.50;;;19.25;52.51
63399;BME280;49533;-34.520;150.798;2023-04-20T11:41:59;101648.69;;;19.25;52.71
63399;BME280;49533;-34.520;150.798;2023-04-20T11:44:27;101648.22;;;19.23;52.90
63399;BME280;49533;-34.520;150.798;2023-04-20T11:46:54;101639.69;;;19.16;52.71
63399;BME280;49533;-34.520;150.798;2023-04-20T11:49:25;101636.47;;;19.14;52.66
63399;BME280;49533;-34.520;150.798;2023-04-20T11:51:53;101598.28;;;18.91;52.58
63399;BME280;49533;-34.520;150.798;2023-04-20T11:54:21;101612.44;;;19.02;52.83
63399;BME280;49533;-34.520;150.798;2023-04-20T11:56:49;101615.06;;;18.98;52.66
63399;BME280;49533;-34.520;150.798;2023-04-20T11:59:16;101599.06;;;18.92;52.77
63399;BME280;49533;-34.520;150.798;2023-04-20T12:01:45;101630.38;;;19.08;52.59
63399;BME280;49533;-34.520;150.798;2023-04-20T12:04:12;101644.53;;;19.19;52.73
63399;BME280;49533;-34.520;150.798;2023-04-20T12:06:40;101642.94;;;19.18;52.70
63399;BME280;49533;-34.520;150.798;2023-04-20T12:09:07;101651.53;;;19.16;52.77
63399;BME280;49533;-34.520;150.798;2023-04-20T12:11:34;101650.72;;;19.16;52.71
63399;BME280;49533;-34.520;150.798;2023-04-20T12:14:01;101653.13;;;19.17;52.74
63399;BME280;49533;-34.520;150.798;2023-04-20T12:16:30;101651.03;;;19.14;52.71
63399;BME280;49533;-34.520;150.798;2023-04-20T12:18:57;101580.94;;;18.69;52.75
63399;BME280;49533;-34.520;150.798;2023-04-20T12:21:24;101654.59;;;19.15;52.75
63399;BME280;49533;-34.520;150.798;2023-04-20T12:23:52;101617.75;;;18.86;52.79
63399;BME280;49533;-34.520;150.798;2023-04-20T12:26:20;101652.53;;;19.11;52.81